Time;durP1;ratioP1;P1;durP2;ratioP2;P2;SDS_P1;SDS_P2;PMS_P1;PMS_P2;Temp;Humidity;BMP_temperature;BMP_pressure;BME280_temperature;BME280_humidity;BME280_pressure;Samples;Min_cycle;Max_cycle;Signal;HPM_P1;HPM_P2
2022/04/10 00:01:14;;;;;;;;;;;18.30;35.40;;;;;;8367749;28;19920;-50
2022/04/10 00:05:14;;;;;;;;;;;18.20;35.30;;;;;;8367656;28;19959;-49
2022/04/10 00:09:15;;;;;;;;;;;18.20;35.40;;;;;;8367278;28;19953;-49
2022/04/10 00:13:15;;;;;;;;;;;18.20;35.40;;;;;;8367417;28;20301;-49
2022/04/10 00:17:16;;;;;;;;;;;18.20;35.30;;;;;;8367153;28;20362;-50
2022/04/10 00:21:17;;;;;;;;;;;18.20;35.40;;;;;;8366779;28;19956;-49
2022/04/10 00:25:18;;;;;;;;;;;18.20;35.40;;;;;;8366987;28;20381;-49
2022/04/10 00:29:18;;;;;;;;;;;18.20;35.40;;;;;;8366816;28;20297;-49
2022/04/10 00:33:19;;;;;;;;;;;18.20;35.40;;;;;;8367113;28;19917;-49
2022/04/10 00:37:19;;;;;;;;;;;18.20;35.40;;;;;;8366840;28;19916;-48
2022/04/10 00:41:20;;;;;;;;;;;18.20;35.40;;;;;;8366387;28;20294;-49
2022/04/10 00:45:20;;;;;;;;;;;18.20;35.40;;;;;;8366750;28;19929;-50
2022/04/10 00:49:21;;;;;;;;;;;18.20;35.40;;;;;;8366665;28;19913;-51
2022/04/10 00:53:21;;;;;;;;;;;18.20;35.40;;;;;;8365903;28;19939;-50
2022/04/10 00:57:23;;;;;;;;;;;18.10;35.30;;;;;;8366567;28;19940;-47
2022/04/10 01:01:23;;;;;;;;;;;18.10;35.40;;;;;;8365999;28;19927;-49
2022/04/10 01:05:24;;;;;;;;;;;18.10;35.40;;;;;;8351379;28;19925;-48
2022/04/10 01:09:24;;;;;;;;;;;18.10;35.40;;;;;;8333078;28;20291;-52
2022/04/10 01:13:25;;;;;;;;;;;18.10;35.40;;;;;;8333012;28;20433;-48
2022/04/10 01:17:27;;;;;;;;;;;18.10;35.40;;;;;;8332253;28;19917;-50
2022/04/10 01:21:29;;;;;;;;;;;18.10;35.40;;;;;;8331753;28;19959;-52
2022/04/10 01:25:29;;;;;;;;;;;18.10;35.30;;;;;;8332412;28;20275;-48
2022/04/10 01:29:30;;;;;;;;;;;18.00;35.30;;;;;;8332087;28;20000;-49
2022/04/10 01:33:30;;;;;;;;;;;18.00;35.30;;;;;;8332038;28;19999;-50
2022/04/10 01:37:31;;;;;;;;;;;18.00;35.30;;;;;;8331921;28;19917;-49
2022/04/10 01:41:32;;;;;;;;;;;18.00;35.30;;;;;;8331287;28;19917;-48
2022/04/10 01:45:32;;;;;;;;;;;18.00;35.30;;;;;;8331805;28;19944;-48
2022/04/10 01:49:33;;;;;;;;;;;18.10;35.40;;;;;;8332054;28;19959;-50
2022/04/10 01:53:34;;;;;;;;;;;18.00;35.30;;;;;;8331051;28;19924;-49
2022/04/10 01:57:35;;;;;;;;;;;18.00;35.30;;;;;;8331191;28;19923;-52
2022/04/10 02:01:35;;;;;;;;;;;18.00;35.30;;;;;;8331673;28;19917;-48
2022/04/10 02:05:35;;;;;;;;;;;18.00;35.30;;;;;;8331106;28;19917;-51
2022/04/10 02:09:36;;;;;;;;;;;18.00;35.30;;;;;;8331871;28;19920;-53
2022/04/10 02:13:36;;;;;;;;;;;18.00;35.30;;;;;;8331407;28;20020;-51
2022/04/10 02:17:37;;;;;;;;;;;18.00;35.30;;;;;;8330465;28;20007;-53
2022/04/10 02:21:37;;;;;;;;;;;17.90;35.30;;;;;;8330937;28;19917;-52
2022/04/10 02:25:38;;;;;;;;;;;17.90;35.20;;;;;;8330888;28;19925;-48
2022/04/10 02:29:38;;;;;;;;;;;17.90;35.30;;;;;;8330075;28;19917;-47
2022/04/10 02:33:39;;;;;;;;;;;17.90;35.30;;;;;;8329840;28;19997;-48
2022/04/10 02:37:40;;;;;;;;;;;17.90;35.30;;;;;;8330648;28;20378;-48
2022/04/10 02:41:40;;;;;;;;;;;17.90;35.20;;;;;;8329660;28;19921;-48
2022/04/10 02:45:41;;;;;;;;;;;17.90;35.30;;;;;;8330429;28;20263;-49
2022/04/10 02:49:41;;;;;;;;;;;17.90;35.30;;;;;;8330082;28;19921;-51
2022/04/10 02:53:42;;;;;;;;;;;17.90;35.30;;;;;;8329547;28;19983;-47
2022/04/10 02:57:42;;;;;;;;;;;17.80;35.20;;;;;;8330119;28;20271;-48
2022/04/10 03:01:43;;;;;;;;;;;17.80;35.20;;;;;;8329680;28;19917;-47
2022/04/10 03:05:43;;;;;;;;;;;17.80;35.20;;;;;;8329614;28;19948;-48
2022/04/10 03:09:43;;;;;;;;;;;17.80;35.20;;;;;;8329885;28;19925;-48
2022/04/10 03:13:45;;;;;;;;;;;17.80;35.20;;;;;;8329861;28;19963;-48
2022/04/10 03:17:45;;;;;;;;;;;17.80;35.20;;;;;;8329259;28;19917;-49
2022/04/10 03:21:45;;;;;;;;;;;17.80;35.20;;;;;;8329858;28;20302;-49
2022/04/10 03:25:46;;;;;;;;;;;17.80;35.20;;;;;;8329960;28;20440;-48
2022/04/10 03:29:46;;;;;;;;;;;17.70;35.10;;;;;;8329262;28;20108;-49
2022/04/10 03:33:47;;;;;;;;;;;17.80;35.20;;;;;;8329474;28;19963;-49
2022/04/10 03:37:47;;;;;;;;;;;17.70;35.20;;;;;;8329510;28;20436;-48
2022/04/10 03:41:48;;;;;;;;;;;17.70;35.20;;;;;;8329281;28;19918;-48
2022/04/10 03:45:48;;;;;;;;;;;17.80;35.20;;;;;;8333298;28;19917;-47
2022/04/10 03:49:50;;;;;;;;;;;17.80;35.20;;;;;;8340929;28;19920;-49
2022/04/10 03:53:51;;;;;;;;;;;17.70;35.20;;;;;;8367825;28;20289;-48
2022/04/10 03:57:51;;;;;;;;;;;17.70;35.20;;;;;;8368036;28;19927;-51
2022/04/10 04:01:52;;;;;;;;;;;17.70;35.20;;;;;;8368154;28;19921;-51
2022/04/10 04:05:53;;;;;;;;;;;17.70;35.10;;;;;;8367579;28;19913;-50
2022/04/10 04:09:53;;;;;;;;;;;17.70;35.20;;;;;;8365855;28;19924;-49
2022/04/10 04:13:55;;;;;;;;;;;17.70;35.20;;;;;;8334600;28;20271;-49
2022/04/10 04:17:55;;;;;;;;;;;17.70;35.20;;;;;;8334024;28;20329;-48
2022/04/10 04:21:56;;;;;;;;;;;17.70;35.20;;;;;;8334326;28;19917;-50
2022/04/10 04:25:56;;;;;;;;;;;17.70;35.20;;;;;;8334523;28;19913;-49
2022/04/10 04:29:57;;;;;;;;;;;17.70;35.20;;;;;;8333705;28;19952;-48
2022/04/10 04:33:57;;;;;;;;;;;17.70;35.20;;;;;;8333914;28;20127;-49
2022/04/10 04:37:58;;;;;;;;;;;17.70;35.20;;;;;;8334292;28;19924;-48
2022/04/10 04:41:58;;;;;;;;;;;17.70;35.20;;;;;;8333557;28;20371;-49
2022/04/10 04:45:59;;;;;;;;;;;17.70;35.20;;;;;;8334015;28;19913;-49
2022/04/10 04:49:59;;;;;;;;;;;17.60;35.20;;;;;;8333563;28;19917;-48
2022/04/10 04:54:03;;;;;;;;;;;17.60;35.10;;;;;;8332869;28;19917;-48
2022/04/10 04:58:04;;;;;;;;;;;17.70;35.20;;;;;;8331995;28;20374;-49
2022/04/10 05:02:04;;;;;;;;;;;17.70;35.20;;;;;;8333049;28;19925;-52
2022/04/10 05:06:05;;;;;;;;;;;17.60;35.10;;;;;;8332677;28;19948;-49
2022/04/10 05:10:05;;;;;;;;;;;17.70;35.10;;;;;;8332793;28;19917;-48
2022/04/10 05:14:06;;;;;;;;;;;17.60;35.10;;;;;;8332675;28;20012;-49
2022/04/10 05:18:06;;;;;;;;;;;17.60;35.20;;;;;;8337940;28;20387;-49
2022/04/10 05:22:07;;;;;;;;;;;17.60;35.10;;;;;;8365289;28;19928;-50
2022/04/10 05:26:07;;;;;;;;;;;17.60;35.10;;;;;;8365414;28;19948;-49
2022/04/10 05:30:08;;;;;;;;;;;17.60;35.20;;;;;;8364642;28;19917;-51
2022/04/10 05:34:08;;;;;;;;;;;17.60;35.10;;;;;;8365008;28;19928;-51
2022/04/10 05:38:09;;;;;;;;;;;17.60;35.10;;;;;;8364927;28;19916;-49
2022/04/10 05:42:10;;;;;;;;;;;17.60;35.10;;;;;;8364258;28;19928;-49
2022/04/10 05:46:10;;;;;;;;;;;17.60;35.20;;;;;;8364891;28;19913;-51
2022/04/10 05:50:12;;;;;;;;;;;17.60;35.10;;;;;;8364876;28;19917;-51
2022/04/10 05:54:14;;;;;;;;;;;17.60;35.10;;;;;;8363919;28;19932;-53
2022/04/10 05:58:14;;;;;;;;;;;17.60;35.10;;;;;;8364308;28;19975;-51
2022/04/10 06:02:15;;;;;;;;;;;17.60;35.10;;;;;;8364074;28;20328;-52
2022/04/10 06:06:17;;;;;;;;;;;17.60;35.10;;;;;;8363578;28;19913;-48
2022/04/10 06:10:18;;;;;;;;;;;17.60;35.10;;;;;;8363864;28;19917;-49
2022/04/10 06:14:18;;;;;;;;;;;17.60;35.10;;;;;;8363326;28;19921;-48
2022/04/10 06:18:19;;;;;;;;;;;17.70;35.00;;;;;;8363736;28;19921;-47
2022/04/10 06:22:20;;;;;;;;;;;17.70;34.90;;;;;;8363610;28;20297;-49
2022/04/10 06:26:21;;;;;;;;;;;17.80;34.80;;;;;;8363428;28;19919;-51
2022/04/10 06:30:22;;;;;;;;;;;17.80;34.60;;;;;;8363510;28;19925;-51
2022/04/10 06:34:22;;;;;;;;;;;17.90;34.60;;;;;;8363542;28;20388;-55
2022/04/10 06:38:23;;;;;;;;;;;17.90;34.40;;;;;;8362894;28;19917;-48
2022/04/10 06:42:23;;;;;;;;;;;18.00;34.50;;;;;;8363021;28;19925;-51
2022/04/10 06:46:26;;;;;;;;;;;18.10;34.30;;;;;;8363139;28;19916;-49
2022/04/10 06:50:26;;;;;;;;;;;18.10;34.10;;;;;;8362406;28;19920;-49
2022/04/10 06:54:27;;;;;;;;;;;18.30;34.00;;;;;;8362878;28;20329;-50
2022/04/10 06:58:27;;;;;;;;;;;18.30;33.90;;;;;;8362713;28;19921;-50
2022/04/10 07:02:28;;;;;;;;;;;18.30;34.00;;;;;;8362345;28;19968;-49
2022/04/10 07:06:28;;;;;;;;;;;18.20;34.00;;;;;;8363053;28;19927;-49
2022/04/10 07:10:29;;;;;;;;;;;18.20;34.00;;;;;;8361145;28;19917;-50
2022/04/10 07:14:29;;;;;;;;;;;18.20;34.00;;;;;;8362181;28;19921;-49
2022/04/10 07:18:30;;;;;;;;;;;18.20;34.10;;;;;;8362693;28;19947;-48
2022/04/10 07:26:52;;;;;;;;;;;18.10;34.90;;;;;;8368117;28;19924;-52
2022/04/10 07:30:52;;;;;;;;;;;18.00;34.40;;;;;;8350801;28;20411;-50
2022/04/10 07:34:53;;;;;;;;;;;18.10;34.50;;;;;;8368876;28;19996;-48
2022/04/10 07:38:54;;;;;;;;;;;18.10;34.40;;;;;;8368121;28;19917;-49
2022/04/10 07:42:55;;;;;;;;;;;18.10;34.50;;;;;;8368601;28;19921;-49
2022/04/10 07:51:15;;;;;;;;;;;18.00;34.60;;;;;;8367995;28;20016;-52
2022/04/10 07:55:15;;;;;;;;;;;18.00;34.60;;;;;;8368041;28;19917;-50
2022/04/10 07:59:17;;;;;;;;;;;18.00;35.20;;;;;;8367901;28;20355;-49
2022/04/10 08:03:18;;;;;;;;;;;18.00;34.70;;;;;;8367157;28;19932;-49
2022/04/10 08:07:18;;;;;;;;;;;18.00;34.80;;;;;;8367767;28;19952;-51
2022/04/10 08:11:19;;;;;;;;;;;18.00;34.90;;;;;;8367210;28;19948;-50
2022/04/10 08:15:19;;;;;;;;;;;17.90;34.90;;;;;;8367397;28;20312;-50
2022/04/10 08:19:20;;;;;;;;;;;17.90;34.90;;;;;;8367231;28;19917;-49
2022/04/10 08:23:20;;;;;;;;;;;18.00;34.90;;;;;;8366674;28;20369;-48
2022/04/10 08:27:21;;;;;;;;;;;18.00;34.90;;;;;;8367285;28;19920;-49
2022/04/10 08:31:21;;;;;;;;;;;18.00;34.90;;;;;;8366688;28;19921;-53
2022/04/10 08:35:22;;;;;;;;;;;18.00;34.90;;;;;;8366464;28;19924;-51
2022/04/10 08:39:23;;;;;;;;;;;18.00;34.90;;;;;;8366882;28;20369;-48
2022/04/10 08:43:24;;;;;;;;;;;18.00;34.90;;;;;;8366679;28;19970;-50
2022/04/10 08:47:25;;;;;;;;;;;18.00;34.90;;;;;;8366158;28;20400;-50
2022/04/10 08:51:26;;;;;;;;;;;18.00;34.90;;;;;;8366510;28;19916;-50
2022/04/10 08:55:27;;;;;;;;;;;18.00;34.90;;;;;;8366111;28;19917;-49
2022/04/10 08:59:27;;;;;;;;;;;18.00;34.90;;;;;;8365603;28;20004;-48
2022/04/10 09:03:27;;;;;;;;;;;18.10;34.90;;;;;;8365794;28;20384;-50
2022/04/10 09:07:28;;;;;;;;;;;18.10;34.90;;;;;;8366257;28;20071;-50
2022/04/10 09:11:29;;;;;;;;;;;18.10;34.80;;;;;;8365352;28;19921;-48
2022/04/10 09:15:33;;;;;;;;;;;18.10;34.90;;;;;;8365540;28;19916;-49
2022/04/10 09:19:52;;;;;;;;;;;18.10;34.80;;;;;;8365678;28;19916;-50
2022/04/10 09:24:03;;;;;;;;;;;18.10;34.90;;;;;;8364771;28;20019;-49
2022/04/10 09:28:04;;;;;;;;;;;18.10;34.90;;;;;;8365617;28;19924;-50
2022/04/10 09:32:13;;;;;;;;;;;18.10;34.80;;;;;;8364961;28;19917;-50
2022/04/10 09:36:16;;;;;;;;;;;18.20;34.90;;;;;;8364447;28;20289;-51
2022/04/10 09:40:29;;;;;;;;;;;18.20;34.90;;;;;;8364760;28;19923;-49
2022/04/10 09:44:33;;;;;;;;;;;18.20;34.80;;;;;;8363971;28;19936;-50
2022/04/10 09:48:34;;;;;;;;;;;18.20;34.80;;;;;;8364905;28;19913;-53
2022/04/10 09:52:35;;;;;;;;;;;18.20;34.80;;;;;;8364572;28;19924;-50
2022/04/10 09:56:36;;;;;;;;;;;18.20;34.70;;;;;;8363886;28;19917;-49
2022/04/10 10:00:42;;;;;;;;;;;18.30;34.80;;;;;;8364651;28;19966;-51
2022/04/10 10:04:44;;;;;;;;;;;18.30;34.70;;;;;;8363983;28;19921;-50
2022/04/10 10:08:45;;;;;;;;;;;18.30;34.70;;;;;;8363629;28;19963;-49
2022/04/10 10:12:46;;;;;;;;;;;18.30;34.70;;;;;;8363166;28;20404;-49
2022/04/10 10:16:47;;;;;;;;;;;18.40;34.80;;;;;;8364031;28;19940;-51
2022/04/10 10:20:47;;;;;;;;;;;18.30;34.70;;;;;;8363213;28;19940;-50
2022/04/10 10:24:50;;;;;;;;;;;18.40;34.70;;;;;;8363453;28;19921;-53
2022/04/10 10:28:56;;;;;;;;;;;18.40;34.70;;;;;;8363714;28;19917;-49
2022/04/10 10:33:16;;;;;;;;;;;18.40;34.60;;;;;;8363147;28;20396;-48
2022/04/10 10:37:25;;;;;;;;;;;18.50;34.60;;;;;;8362503;28;19917;-49
2022/04/10 10:41:26;;;;;;;;;;;18.50;34.60;;;;;;8362765;28;20366;-50
2022/04/10 10:45:41;;;;;;;;;;;18.50;34.60;;;;;;8363412;28;19932;-53
2022/04/10 10:49:46;;;;;;;;;;;18.60;34.60;;;;;;8363951;28;19944;-49
2022/04/10 10:53:57;;;;;;;;;;;18.60;34.60;;;;;;8364357;28;19977;-51
2022/04/10 10:58:06;;;;;;;;;;;18.60;34.60;;;;;;8370204;28;19921;-49
2022/04/10 11:02:10;;;;;;;;;;;18.60;34.50;;;;;;8370826;28;19963;-48
2022/04/10 11:06:20;;;;;;;;;;;18.60;34.40;;;;;;8351950;28;20050;-49
2022/04/10 11:10:21;;;;;;;;;;;18.60;34.40;;;;;;8370122;28;19955;-49
2022/04/10 11:14:31;;;;;;;;;;;18.60;34.40;;;;;;8369517;28;19920;-52
2022/04/10 11:18:35;;;;;;;;;;;18.60;34.40;;;;;;8369464;28;19912;-52
2022/04/10 11:22:38;;;;;;;;;;;18.60;34.30;;;;;;8369096;28;19925;-50
2022/04/10 11:26:43;;;;;;;;;;;18.60;34.40;;;;;;8368659;28;19925;-50
2022/04/10 11:30:45;;;;;;;;;;;18.60;34.30;;;;;;8368998;28;19917;-49
2022/04/10 11:34:56;;;;;;;;;;;18.60;34.30;;;;;;8368877;28;19924;-50
2022/04/10 11:39:09;;;;;;;;;;;18.60;34.30;;;;;;8368496;28;20015;-50
2022/04/10 11:43:11;;;;;;;;;;;18.60;34.30;;;;;;8368621;28;19970;-52
2022/04/10 11:47:12;;;;;;;;;;;18.60;34.30;;;;;;8368563;28;19970;-52
2022/04/10 11:51:12;;;;;;;;;;;18.70;34.30;;;;;;8367765;28;19943;-53
2022/04/10 11:55:13;;;;;;;;;;;18.70;34.20;;;;;;8368261;28;20441;-49
2022/04/10 11:59:13;;;;;;;;;;;18.70;34.30;;;;;;8368240;28;19928;-52
2022/04/10 12:03:14;;;;;;;;;;;18.70;34.20;;;;;;8367385;28;20002;-51
2022/04/10 12:07:18;;;;;;;;;;;18.70;34.20;;;;;;8367495;28;19917;-49
2022/04/10 12:11:19;;;;;;;;;;;18.70;34.20;;;;;;8370113;28;19917;-48
2022/04/10 12:15:20;;;;;;;;;;;18.70;34.10;;;;;;8388769;28;19960;-50
2022/04/10 12:19:34;;;;;;;;;;;18.70;34.00;;;;;;8334905;28;19920;-50
2022/04/10 12:23:35;;;;;;;;;;;18.70;34.00;;;;;;8333778;28;20008;-51
2022/04/10 12:27:35;;;;;;;;;;;18.70;34.00;;;;;;8334177;28;19917;-50
2022/04/10 12:31:36;;;;;;;;;;;18.80;34.10;;;;;;8334054;28;20359;-53
2022/04/10 12:35:38;;;;;;;;;;;18.80;34.00;;;;;;8333599;28;19921;-50
2022/04/10 12:39:39;;;;;;;;;;;18.80;34.10;;;;;;8334385;28;19939;-51
2022/04/10 12:43:39;;;;;;;;;;;18.80;34.10;;;;;;8333402;28;19936;-49
2022/04/10 12:47:41;;;;;;;;;;;18.80;34.10;;;;;;8332979;28;20290;-51
2022/04/10 12:51:48;;;;;;;;;;;18.80;34.00;;;;;;8333337;28;20382;-51
2022/04/10 12:55:49;;;;;;;;;;;18.80;33.90;;;;;;8333544;28;20325;-49
2022/04/10 12:59:50;;;;;;;;;;;18.80;33.90;;;;;;8332812;28;19921;-50
2022/04/10 13:03:50;;;;;;;;;;;18.90;34.00;;;;;;8333238;28;19925;-49
2022/04/10 13:07:58;;;;;;;;;;;18.90;34.00;;;;;;8356351;28;19949;-48
2022/04/10 13:11:58;;;;;;;;;;;18.90;34.00;;;;;;8365401;28;19924;-50
2022/04/10 13:16:09;;;;;;;;;;;19.00;34.00;;;;;;8365212;28;19917;-50
2022/04/10 13:20:10;;;;;;;;;;;18.90;33.80;;;;;;8365408;28;19925;-48
2022/04/10 13:24:11;;;;;;;;;;;19.00;34.00;;;;;;8365083;28;19968;-48
2022/04/10 13:28:12;;;;;;;;;;;19.00;33.90;;;;;;8365602;28;20347;-47
2022/04/10 13:32:13;;;;;;;;;;;19.00;33.80;;;;;;8365278;28;19919;-47
2022/04/10 13:36:14;;;;;;;;;;;19.00;33.80;;;;;;8364522;28;20291;-48
2022/04/10 13:40:17;;;;;;;;;;;19.00;33.90;;;;;;8365108;28;19952;-48
2022/04/10 13:44:18;;;;;;;;;;;19.00;33.80;;;;;;8364928;28;19924;-49
2022/04/10 13:48:18;;;;;;;;;;;19.00;33.80;;;;;;8364386;28;19917;-51
2022/04/10 13:52:19;;;;;;;;;;;19.00;33.80;;;;;;8364527;28;19927;-49
2022/04/10 13:56:19;;;;;;;;;;;19.10;33.80;;;;;;8363980;28;20290;-53
2022/04/10 14:00:20;;;;;;;;;;;19.10;33.70;;;;;;8364042;28;19921;-53
2022/04/10 14:04:20;;;;;;;;;;;19.10;33.80;;;;;;8364379;28;19925;-50
2022/04/10 14:08:21;;;;;;;;;;;19.10;33.80;;;;;;8363642;28;19913;-49
2022/04/10 14:12:24;;;;;;;;;;;19.20;33.70;;;;;;8363565;28;21273;-49
2022/04/10 14:16:25;;;;;;;;;;;19.20;33.70;;;;;;8364220;28;19939;-48
2022/04/10 14:20:26;;;;;;;;;;;19.20;33.60;;;;;;8363359;28;20381;-53
2022/04/10 14:24:27;;;;;;;;;;;19.20;33.60;;;;;;8364066;28;19932;-49
2022/04/10 14:28:28;;;;;;;;;;;19.20;33.70;;;;;;8363365;28;19917;-51
2022/04/10 14:32:28;;;;;;;;;;;19.20;33.70;;;;;;8362902;28;19920;-51
2022/04/10 14:36:29;;;;;;;;;;;19.10;33.60;;;;;;8363353;28;19917;-51
2022/04/10 14:40:29;;;;;;;;;;;19.20;33.60;;;;;;8363655;28;19920;-49
2022/04/10 14:44:30;;;;;;;;;;;19.10;33.60;;;;;;8362837;28;20007;-47
2022/04/10 14:48:30;;;;;;;;;;;19.20;33.60;;;;;;8363098;28;19917;-49
2022/04/10 14:52:31;;;;;;;;;;;19.20;33.60;;;;;;8363337;28;19913;-49
2022/04/10 14:56:32;;;;;;;;;;;19.20;33.60;;;;;;8362618;28;19917;-48
2022/04/10 15:00:32;;;;;;;;;;;19.20;33.60;;;;;;8363265;28;19921;-47
2022/04/10 15:04:33;;;;;;;;;;;19.20;33.50;;;;;;8363159;28;19932;-48
2022/04/10 15:08:33;;;;;;;;;;;19.20;33.50;;;;;;8362883;28;19920;-51
2022/04/10 15:12:34;;;;;;;;;;;19.20;33.40;;;;;;8362981;28;19955;-52
2022/04/10 15:16:35;;;;;;;;;;;19.20;33.30;;;;;;8362722;28;20439;-53
2022/04/10 15:20:36;;;;;;;;;;;19.20;33.30;;;;;;8362510;28;19917;-50
2022/04/10 15:24:37;;;;;;;;;;;19.20;33.30;;;;;;8362613;28;19925;-50
2022/04/10 15:28:37;;;;;;;;;;;19.20;33.30;;;;;;8362731;28;19924;-50
2022/04/10 15:32:38;;;;;;;;;;;19.20;33.20;;;;;;8362013;28;20402;-51
2022/04/10 15:36:40;;;;;;;;;;;19.20;33.20;;;;;;8362355;28;19924;-55
2022/04/10 15:40:41;;;;;;;;;;;19.20;33.30;;;;;;8364920;28;19917;-52
2022/04/10 15:44:41;;;;;;;;;;;19.20;33.30;;;;;;8367992;28;19968;-50
2022/04/10 15:48:42;;;;;;;;;;;19.20;33.30;;;;;;8368447;28;20293;-54
2022/04/10 15:52:43;;;;;;;;;;;19.20;33.30;;;;;;8368279;28;19924;-49
2022/04/10 15:56:43;;;;;;;;;;;19.20;33.30;;;;;;8367823;28;19917;-53
2022/04/10 16:00:44;;;;;;;;;;;19.20;33.30;;;;;;8368684;28;20008;-49
2022/04/10 16:04:44;;;;;;;;;;;19.20;33.20;;;;;;8367816;28;19925;-49
2022/04/10 16:08:45;;;;;;;;;;;19.20;33.30;;;;;;8359774;28;19918;-48
2022/04/10 16:12:46;;;;;;;;;;;19.10;33.30;;;;;;8335041;28;19917;-48
2022/04/10 16:16:48;;;;;;;;;;;19.10;33.30;;;;;;8334481;28;19913;-50
2022/04/10 16:20:48;;;;;;;;;;;19.10;33.30;;;;;;8334135;28;20344;-51
2022/04/10 16:24:49;;;;;;;;;;;19.10;33.30;;;;;;8334352;28;19925;-53
2022/04/10 16:33:09;;;;;;;;;;;19.10;33.30;;;;;;8333632;28;20413;-48
2022/04/10 16:37:09;;;;;;;;;;;19.10;33.30;;;;;;8334117;28;19917;-53
2022/04/10 16:41:10;;;;;;;;;;;19.10;33.30;;;;;;8333943;28;19921;-50
2022/04/10 16:45:10;;;;;;;;;;;19.10;33.30;;;;;;8333105;28;19932;-50
2022/04/10 16:49:11;;;;;;;;;;;19.10;33.30;;;;;;8333512;28;19924;-50
2022/04/10 16:53:12;;;;;;;;;;;19.10;33.30;;;;;;8332240;28;20301;-51
2022/04/10 16:57:13;;;;;;;;;;;19.10;33.30;;;;;;8332955;28;20285;-49
2022/04/10 17:01:14;;;;;;;;;;;19.10;33.40;;;;;;8334026;28;19979;-50
2022/04/10 17:05:16;;;;;;;;;;;19.10;33.30;;;;;;8332960;28;19948;-49
2022/04/10 17:09:20;;;;;;;;;;;19.10;33.30;;;;;;8332592;28;19917;-51
2022/04/10 17:13:20;;;;;;;;;;;19.00;33.30;;;;;;8333006;28;19923;-48
2022/04/10 17:17:20;;;;;;;;;;;19.00;33.30;;;;;;8332197;28;19921;-50
2022/04/10 17:21:21;;;;;;;;;;;19.00;33.20;;;;;;8332716;28;20325;-50
2022/04/10 17:25:22;;;;;;;;;;;19.00;33.30;;;;;;8332239;28;19947;-50
2022/04/10 17:29:23;;;;;;;;;;;19.00;33.20;;;;;;8332085;28;19975;-50
2022/04/10 17:33:23;;;;;;;;;;;19.00;33.30;;;;;;8332122;28;19960;-48
2022/04/10 17:37:24;;;;;;;;;;;19.00;33.20;;;;;;8331945;28;19917;-49
2022/04/10 17:41:24;;;;;;;;;;;19.00;33.20;;;;;;8331711;28;19921;-49
2022/04/10 17:45:25;;;;;;;;;;;19.00;33.20;;;;;;8331696;28;19929;-49
2022/04/10 17:49:25;;;;;;;;;;;19.00;33.20;;;;;;8331855;28;20325;-49
2022/04/10 17:53:26;;;;;;;;;;;19.00;33.30;;;;;;8331062;28;19913;-52
2022/04/10 17:57:26;;;;;;;;;;;19.00;33.30;;;;;;8331373;28;19988;-47
2022/04/10 18:01:27;;;;;;;;;;;19.00;33.30;;;;;;8331397;28;19920;-49
2022/04/10 18:05:27;;;;;;;;;;;19.00;33.30;;;;;;8330235;28;19948;-53
2022/04/10 18:09:28;;;;;;;;;;;19.00;33.30;;;;;;8331491;28;19917;-53
2022/04/10 18:13:28;;;;;;;;;;;19.00;33.30;;;;;;8330949;28;19917;-50
2022/04/10 18:17:29;;;;;;;;;;;19.00;33.30;;;;;;8330327;28;19925;-51
2022/04/10 18:21:29;;;;;;;;;;;19.00;33.30;;;;;;8331143;28;19917;-50
2022/04/10 18:25:30;;;;;;;;;;;19.00;33.30;;;;;;8330617;28;19932;-52
2022/04/10 18:29:31;;;;;;;;;;;19.00;33.30;;;;;;8330067;28;19967;-50
2022/04/10 18:33:33;;;;;;;;;;;18.90;33.30;;;;;;8330653;28;19917;-51
2022/04/10 18:37:33;;;;;;;;;;;18.90;34.00;;;;;;8330233;28;20004;-49
2022/04/10 18:41:35;;;;;;;;;;;18.90;33.40;;;;;;8330048;28;19917;-50
2022/04/10 18:45:38;;;;;;;;;;;18.90;33.60;;;;;;8330427;28;20298;-49
2022/04/10 18:49:39;;;;;;;;;;;18.90;33.50;;;;;;8330454;28;20382;-47
2022/04/10 18:53:40;;;;;;;;;;;18.90;33.40;;;;;;8329694;28;20458;-49
2022/04/10 18:57:40;;;;;;;;;;;18.90;33.50;;;;;;8330174;28;19996;-51
2022/04/10 19:01:41;;;;;;;;;;;18.90;33.60;;;;;;8330472;28;19917;-48
2022/04/10 19:05:44;;;;;;;;;;;18.90;33.60;;;;;;8329334;28;19925;-50
2022/04/10 19:09:44;;;;;;;;;;;18.90;33.60;;;;;;8329386;28;19925;-51
2022/04/10 19:13:48;;;;;;;;;;;18.90;33.70;;;;;;8329783;28;20263;-51
2022/04/10 19:17:48;;;;;;;;;;;18.90;33.60;;;;;;8334964;28;19989;-50
2022/04/10 19:21:49;;;;;;;;;;;18.90;33.70;;;;;;8336318;28;20317;-51
2022/04/10 19:25:50;;;;;;;;;;;18.90;33.70;;;;;;8336201;28;19929;-51
2022/04/10 19:29:50;;;;;;;;;;;18.90;33.70;;;;;;8335704;28;19928;-51
2022/04/10 19:33:51;;;;;;;;;;;18.90;33.70;;;;;;8335702;28;20320;-51
2022/04/10 19:37:51;;;;;;;;;;;18.90;33.70;;;;;;8335960;28;19982;-49
2022/04/10 19:41:53;;;;;;;;;;;18.80;33.70;;;;;;8335402;28;20009;-48
2022/04/10 19:45:53;;;;;;;;;;;18.80;33.70;;;;;;8335700;28;20477;-49
2022/04/10 19:49:54;;;;;;;;;;;18.80;33.70;;;;;;8335567;28;19917;-48
2022/04/10 19:53:59;;;;;;;;;;;18.80;33.70;;;;;;8334782;28;19917;-49
2022/04/10 19:57:59;;;;;;;;;;;18.80;33.70;;;;;;8335040;28;19928;-48
2022/04/10 20:02:00;;;;;;;;;;;18.80;33.70;;;;;;8335116;28;19921;-48
2022/04/10 20:06:00;;;;;;;;;;;18.80;33.70;;;;;;8334301;28;19929;-51
2022/04/10 20:10:01;;;;;;;;;;;18.80;33.70;;;;;;8334781;28;20008;-51
2022/04/10 20:14:02;;;;;;;;;;;18.80;33.70;;;;;;8334474;28;19913;-53
2022/04/10 20:18:02;;;;;;;;;;;18.80;33.70;;;;;;8334093;28;20297;-49
2022/04/10 20:22:03;;;;;;;;;;;18.80;33.60;;;;;;8334793;28;19928;-48
2022/04/10 20:26:03;;;;;;;;;;;18.80;33.60;;;;;;8333957;28;20448;-51
2022/04/10 20:30:04;;;;;;;;;;;18.80;33.60;;;;;;8333731;28;19995;-49
2022/04/10 20:34:05;;;;;;;;;;;18.80;33.60;;;;;;8334057;28;19913;-53
2022/04/10 20:38:05;;;;;;;;;;;18.80;33.50;;;;;;8334052;28;19917;-51
2022/04/10 20:42:06;;;;;;;;;;;18.80;33.40;;;;;;8333764;28;19927;-50
2022/04/10 20:46:06;;;;;;;;;;;18.80;33.40;;;;;;8333576;28;19960;-50
2022/04/10 20:50:08;;;;;;;;;;;18.80;33.40;;;;;;8333526;28;19960;-50
2022/04/10 20:54:08;;;;;;;;;;;18.80;33.40;;;;;;8333006;28;19924;-52
2022/04/10 20:58:09;;;;;;;;;;;18.70;33.30;;;;;;8333440;28;20370;-51
2022/04/10 21:02:09;;;;;;;;;;;18.70;33.30;;;;;;8333574;28;19917;-49
2022/04/10 21:06:10;;;;;;;;;;;18.70;33.20;;;;;;8332583;28;19929;-49
2022/04/10 21:10:52;;;;;;;;;;;18.70;33.20;;;;;;8333193;28;19921;-49
2022/04/10 21:14:31;;;;;;;;;;;18.70;33.20;;;;;;8332333;28;19970;-49
2022/04/10 21:18:32;;;;;;;;;;;18.70;33.20;;;;;;8332637;28;19914;-51
2022/04/10 21:22:32;;;;;;;;;;;18.70;33.20;;;;;;8332916;28;19949;-52
2022/04/10 21:26:33;;;;;;;;;;;18.70;33.20;;;;;;8331929;28;19917;-49
2022/04/10 21:30:33;;;;;;;;;;;18.60;33.20;;;;;;8332289;28;20016;-51
2022/04/10 21:34:34;;;;;;;;;;;18.60;33.10;;;;;;8332315;28;20274;-49
2022/04/10 21:38:34;;;;;;;;;;;18.60;33.10;;;;;;8330959;28;20401;-51
2022/04/10 21:42:35;;;;;;;;;;;18.60;33.20;;;;;;8332105;28;19918;-51
2022/04/10 21:46:35;;;;;;;;;;;18.60;33.20;;;;;;8332000;28;20275;-51
2022/04/10 21:50:36;;;;;;;;;;;18.60;33.10;;;;;;8331365;28;19992;-51
2022/04/10 21:54:37;;;;;;;;;;;18.60;33.20;;;;;;8331818;28;20370;-51
2022/04/10 21:58:38;;;;;;;;;;;18.60;33.10;;;;;;8331347;28;19921;-52
2022/04/10 22:02:38;;;;;;;;;;;18.50;33.10;;;;;;8351419;28;19916;-48
2022/04/10 22:06:39;;;;;;;;;;;18.60;33.20;;;;;;8362924;28;20278;-49
2022/04/10 22:10:40;;;;;;;;;;;18.50;33.10;;;;;;8364187;28;19919;-49
2022/04/10 22:14:41;;;;;;;;;;;18.50;33.10;;;;;;8363415;28;19983;-50
2022/04/10 22:18:41;;;;;;;;;;;18.50;33.20;;;;;;8363752;28;19913;-49
2022/04/10 22:22:42;;;;;;;;;;;18.50;33.10;;;;;;8363848;28;19932;-49
2022/04/10 22:26:42;;;;;;;;;;;18.50;33.20;;;;;;8363196;28;19929;-51
2022/04/10 22:30:42;;;;;;;;;;;18.50;33.20;;;;;;8363751;28;19917;-50
2022/04/10 22:34:44;;;;;;;;;;;18.50;33.10;;;;;;8355369;28;20208;-53
2022/04/10 22:38:44;;;;;;;;;;;18.50;33.10;;;;;;8363156;28;19921;-52
2022/04/10 22:42:45;;;;;;;;;;;18.40;33.00;;;;;;8363158;28;20358;-51
2022/04/10 22:46:45;;;;;;;;;;;18.40;33.10;;;;;;8363354;28;19963;-50
2022/04/10 22:50:45;;;;;;;;;;;18.40;33.10;;;;;;8362604;28;20377;-49
2022/04/10 22:54:46;;;;;;;;;;;18.40;33.10;;;;;;8363171;28;19920;-47
2022/04/10 22:58:46;;;;;;;;;;;18.40;33.10;;;;;;8363153;28;19981;-47
2022/04/10 23:02:47;;;;;;;;;;;18.40;33.10;;;;;;8362364;28;19929;-51
2022/04/10 23:06:47;;;;;;;;;;;18.40;33.10;;;;;;8362818;28;19924;-48
2022/04/10 23:10:48;;;;;;;;;;;18.40;33.10;;;;;;8362992;28;20015;-47
2022/04/10 23:14:48;;;;;;;;;;;18.40;33.10;;;;;;8362454;28;19920;-51
2022/04/10 23:18:50;;;;;;;;;;;18.40;33.20;;;;;;8363205;28;19991;-48
2022/04/10 23:22:53;;;;;;;;;;;18.30;33.00;;;;;;8362733;28;19929;-48
2022/04/10 23:26:54;;;;;;;;;;;18.30;33.10;;;;;;8362171;28;19992;-47
2022/04/10 23:30:54;;;;;;;;;;;18.30;33.10;;;;;;8362799;28;20329;-48
2022/04/10 23:34:55;;;;;;;;;;;18.30;33.10;;;;;;8362753;28;19924;-52